Time;durP1;ratioP1;P1;durP2;ratioP2;P2;SDS_P1;SDS_P2;PMS_P1;PMS_P2;Temp;Humidity;BMP_temperature;BMP_pressure;BME280_temperature;BME280_humidity;BME280_pressure;Samples;Min_cycle;Max_cycle;Signal;HPM_P1;HPM_P2
2023/07/17 00:00:31;;;;;;;5.00;1.40;;;;;24.60;101355.00;;;;5011959;28;20232;-78
2023/07/17 00:02:59;;;;;;;3.67;1.02;;;;;24.60;101362.00;;;;5022606;28;20647;-79
2023/07/17 00:05:26;;;;;;;9.50;1.80;;;;;24.60;101365.00;;;;5015220;28;20738;-80
2023/07/17 00:07:55;;;;;;;2.58;0.98;;;;;24.60;101364.00;;;;5012022;28;20212;-79
2023/07/17 00:10:24;;;;;;;4.05;1.02;;;;;24.60;101363.00;;;;5020301;28;20201;-79
2023/07/17 00:12:53;;;;;;;6.45;1.63;;;;;24.50;101366.00;;;;5021288;28;20201;-78
2023/07/17 00:15:21;;;;;;;4.38;1.35;;;;;24.50;101357.00;;;;5015101;28;20246;-79
2023/07/17 00:17:48;;;;;;;1.98;0.95;;;;;24.50;101364.00;;;;5005086;28;20305;-79
2023/07/17 00:20:16;;;;;;;2.88;1.27;;;;;24.50;101363.00;;;;5020538;28;20197;-80
2023/07/17 00:22:43;;;;;;;1.35;0.98;;;;;24.50;101358.00;;;;5014964;28;20209;-79
2023/07/17 00:25:11;;;;;;;4.10;1.83;;;;;24.50;101358.00;;;;5005086;28;20198;-79
2023/07/17 00:27:39;;;;;;;4.97;1.17;;;;;24.50;101359.00;;;;5019866;28;20231;-79
2023/07/17 00:30:08;;;;;;;2.65;1.15;;;;;24.40;101355.00;;;;5018347;28;20272;-79
2023/07/17 00:32:35;;;;;;;2.53;1.05;;;;;24.40;101359.00;;;;5011839;28;20216;-78
2023/07/17 00:35:02;;;;;;;3.70;1.75;;;;;24.40;101359.00;;;;5019499;28;20196;-79
2023/07/17 00:37:30;;;;;;;2.70;1.20;;;;;24.40;101361.00;;;;5014160;28;20228;-79
2023/07/17 00:39:57;;;;;;;2.22;1.10;;;;;24.40;101362.00;;;;5010297;28;20208;-79
2023/07/17 00:42:25;;;;;;;4.13;1.60;;;;;24.40;101358.00;;;;5015512;28;20197;-79
2023/07/17 00:44:54;;;;;;;5.10;1.30;;;;;24.30;101356.00;;;;5006097;28;20205;-79
2023/07/17 00:47:23;;;;;;;3.30;1.00;;;;;24.30;101359.00;;;;5001913;28;20212;-79
2023/07/17 00:49:50;;;;;;;4.05;1.30;;;;;24.30;101351.00;;;;5014491;28;20797;-79
2023/07/17 00:52:18;;;;;;;2.33;1.23;;;;;24.30;101355.00;;;;5012331;28;20212;-79
2023/07/17 00:54:47;;;;;;;2.85;1.40;;;;;24.30;101355.00;;;;5020080;28;20210;-79
2023/07/17 00:57:16;;;;;;;2.97;1.20;;;;;24.20;101352.00;;;;5021688;28;20216;-79
2023/07/17 00:59:44;;;;;;;1.75;0.90;;;;;24.20;101364.00;;;;5007900;28;20248;-79
2023/07/17 01:02:14;;;;;;;1.77;0.95;;;;;24.20;101361.00;;;;5016998;28;20554;-79
2023/07/17 01:04:45;;;;;;;3.58;0.95;;;;;24.10;101359.00;;;;5002970;28;20213;-78
2023/07/17 01:07:13;;;;;;;4.55;1.02;;;;;24.10;101358.00;;;;5021331;28;20200;-79
2023/07/17 01:09:40;;;;;;;3.65;0.98;;;;;24.10;101363.00;;;;5019562;28;20197;-79
2023/07/17 01:12:08;;;;;;;3.28;1.05;;;;;24.10;101362.00;;;;5018147;28;20634;-79
2023/07/17 01:14:35;;;;;;;5.50;1.25;;;;;24.00;101369.00;;;;5012304;28;20208;-79
2023/07/17 01:17:03;;;;;;;1.90;1.08;;;;;24.00;101370.00;;;;5019655;28;20189;-79
2023/07/17 01:19:32;;;;;;;5.38;1.30;;;;;24.00;101370.00;;;;4997631;28;20232;-78
2023/07/17 01:22:01;;;;;;;4.03;1.23;;;;;24.00;101368.00;;;;5008287;28;20212;-78
2023/07/17 01:24:31;;;;;;;2.92;1.10;;;;;23.90;101374.00;;;;4979973;28;20209;-77
2023/07/17 01:26:58;;;;;;;2.47;0.88;;;;;23.90;101377.00;;;;5003981;28;20216;-78
2023/07/17 01:29:26;;;;;;;2.67;0.90;;;;;23.90;101371.00;;;;5006643;28;20671;-78
2023/07/17 01:31:53;;;;;;;1.48;0.88;;;;;23.90;101373.00;;;;5011252;28;20201;-78
2023/07/17 01:34:20;;;;;;;4.85;1.40;;;;;23.90;101378.00;;;;5006486;28;20210;-79
2023/07/17 01:36:47;;;;;;;3.35;1.20;;;;;23.80;101385.00;;;;5004574;28;20220;-79
2023/07/17 01:39:15;;;;;;;4.10;1.35;;;;;23.80;101383.00;;;;5007802;28;20626;-79
2023/07/17 01:41:43;;;;;;;1.90;0.80;;;;;23.70;101393.00;;;;5007853;28;20208;-78
2023/07/17 01:44:11;;;;;;;1.30;0.75;;;;;23.70;101385.00;;;;5012747;28;20197;-78
2023/07/17 01:46:38;;;;;;;1.95;0.73;;;;;23.70;101377.00;;;;5013653;28;20198;-79
2023/07/17 01:49:07;;;;;;;3.22;0.93;;;;;23.60;101380.00;;;;5018931;28;20674;-79
2023/07/17 01:51:34;;;;;;;2.15;0.70;;;;;23.60;101383.00;;;;5008958;28;20240;-79
2023/07/17 01:54:01;;;;;;;2.50;1.05;;;;;23.60;101377.00;;;;5019756;28;20206;-79
2023/07/17 01:56:29;;;;;;;4.22;1.02;;;;;23.60;101379.00;;;;5018252;28;20208;-79
2023/07/17 01:58:57;;;;;;;2.63;0.95;;;;;23.50;101376.00;;;;5004319;28;20457;-78
2023/07/17 02:01:24;;;;;;;1.90;1.08;;;;;23.50;101378.00;;;;5019287;28;20207;-78
2023/07/17 02:03:53;;;;;;;1.50;0.75;;;;;23.50;101379.00;;;;5024193;28;20200;-78
2023/07/17 02:06:20;;;;;;;2.17;0.52;;;;;23.40;101383.00;;;;5009920;28;20200;-78
2023/07/17 02:08:47;;;;;;;3.30;1.10;;;;;23.40;101385.00;;;;5012322;28;20197;-79
2023/07/17 02:11:15;;;;;;;1.98;0.98;;;;;23.40;101392.00;;;;5019475;28;20205;-79
2023/07/17 02:13:42;;;;;;;4.57;0.98;;;;;23.30;101390.00;;;;5016817;28;20209;-79
2023/07/17 02:16:11;;;;;;;6.07;1.50;;;;;23.30;101396.00;;;;5023226;28;20228;-79
2023/07/17 02:18:39;;;;;;;2.05;0.98;;;;;23.30;101387.00;;;;5039837;28;20328;-79
2023/07/17 02:21:06;;;;;;;2.90;0.80;;;;;23.20;101387.00;;;;5039913;28;20714;-79
2023/07/17 02:23:33;;;;;;;3.08;0.80;;;;;23.20;101387.00;;;;5008243;28;20212;-79
2023/07/17 02:26:01;;;;;;;2.17;1.02;;;;;23.10;101382.00;;;;5009989;28;20243;-79
2023/07/17 02:28:28;;;;;;;2.00;0.82;;;;;23.10;101383.00;;;;5018176;28;20194;-79
2023/07/17 02:30:55;;;;;;;2.53;1.00;;;;;23.10;101388.00;;;;5017933;28;20200;-79
2023/07/17 02:33:24;;;;;;;2.58;1.08;;;;;23.10;101395.00;;;;5031338;28;20189;-79
2023/07/17 02:35:51;;;;;;;3.35;1.15;;;;;23.00;101394.00;;;;5016131;28;20204;-78
2023/07/17 02:38:19;;;;;;;2.95;0.98;;;;;23.00;101386.00;;;;5046763;28;20193;-78
2023/07/17 02:40:46;;;;;;;1.67;0.82;;;;;23.00;101390.00;;;;5015069;28;20217;-79
2023/07/17 02:43:13;;;;;;;2.08;0.75;;;;;22.90;101393.00;;;;5026135;28;20202;-79
2023/07/17 02:45:41;;;;;;;1.75;0.90;;;;;22.90;101387.00;;;;5013255;28;20738;-78
2023/07/17 02:48:09;;;;;;;4.00;1.10;;;;;22.90;101392.00;;;;5008597;28;20204;-79
2023/07/17 02:50:38;;;;;;;2.22;0.90;;;;;22.80;101400.00;;;;5016484;28;20193;-78
2023/07/17 02:53:05;;;;;;;3.33;1.08;;;;;22.80;101399.00;;;;5023247;28;20201;-79
2023/07/17 02:55:33;;;;;;;1.95;1.02;;;;;22.80;101400.00;;;;5012048;28;20297;-78
2023/07/17 02:58:00;;;;;;;3.10;1.10;;;;;22.80;101398.00;;;;5020174;28;20208;-79
2023/07/17 03:00:27;;;;;;;4.68;1.20;;;;;22.70;101407.00;;;;5024575;28;20221;-79
2023/07/17 03:02:55;;;;;;;3.35;1.10;;;;;22.70;101410.00;;;;5024536;28;20201;-80
2023/07/17 03:05:22;;;;;;;2.72;1.00;;;;;22.60;101408.00;;;;5021146;28;20252;-79
2023/07/17 03:07:51;;;;;;;4.55;1.00;;;;;22.60;101414.00;;;;5024868;28;20211;-80
2023/07/17 03:10:18;;;;;;;2.78;1.52;;;;;22.60;101414.00;;;;5037409;28;20201;-79
2023/07/17 03:12:46;;;;;;;6.90;0.98;;;;;22.60;101413.00;;;;5031282;28;20201;-79
2023/07/17 03:15:15;;;;;;;1.35;0.90;;;;;22.50;101403.00;;;;5012434;28;20213;-79
2023/07/17 03:17:42;;;;;;;4.70;1.35;;;;;22.50;101408.00;;;;5003681;28;20203;-79
2023/07/17 03:20:10;;;;;;;2.95;1.00;;;;;22.50;101411.00;;;;5025802;28;20216;-79
2023/07/17 03:22:38;;;;;;;2.97;1.52;;;;;22.50;101412.00;;;;5033388;28;20201;-79
2023/07/17 03:25:07;;;;;;;2.28;1.45;;;;;22.40;101411.00;;;;5028334;28;20983;-78
2023/07/17 03:27:35;;;;;;;1.95;0.98;;;;;22.40;101410.00;;;;5025156;28;20204;-78
2023/07/17 03:30:02;;;;;;;4.47;1.48;;;;;22.30;101416.00;;;;5021748;28;20208;-79
2023/07/17 03:32:33;;;;;;;2.30;1.00;;;;;22.30;101418.00;;;;5015604;28;20185;-79
2023/07/17 03:35:00;;;;;;;2.45;1.02;;;;;22.30;101417.00;;;;5020332;28;20193;-79
2023/07/17 03:37:27;;;;;;;3.55;1.35;;;;;22.30;101414.00;;;;5006539;28;20205;-79
2023/07/17 03:39:55;;;;;;;2.15;1.27;;;;;22.30;101412.00;;;;5008392;28;20221;-78
2023/07/17 03:42:23;;;;;;;3.63;1.77;;;;;22.20;101419.00;;;;5016350;28;20208;-79
2023/07/17 03:44:51;;;;;;;3.67;1.33;;;;;22.20;101413.00;;;;5020958;28;20200;-78
2023/07/17 03:47:18;;;;;;;1.85;1.00;;;;;22.20;101421.00;;;;5020758;28;20212;-79
2023/07/17 03:49:45;;;;;;;2.85;1.27;;;;;22.20;101421.00;;;;5009650;28;20209;-79
2023/07/17 03:52:13;;;;;;;3.60;1.52;;;;;22.20;101414.00;;;;5022716;28;20706;-79
2023/07/17 03:54:40;;;;;;;4.25;1.40;;;;;22.20;101425.00;;;;5018143;28;20197;-79
2023/07/17 03:57:09;;;;;;;3.22;1.70;;;;;22.10;101417.00;;;;5019239;28;20638;-78
2023/07/17 03:59:50;;;;;;;4.30;1.35;;;;;22.00;101424.00;;;;5022179;28;20245;-79
2023/07/17 04:02:19;;;;;;;3.22;1.38;;;;;22.10;101423.00;;;;5009494;28;20945;-79
2023/07/17 04:04:46;;;;;;;7.43;1.60;;;;;22.10;101417.00;;;;5018027;28;20702;-79
2023/07/17 04:07:13;;;;;;;4.00;1.92;;;;;22.00;101416.00;;;;5024212;28;20244;-78
2023/07/17 04:09:42;;;;;;;2.35;1.38;;;;;22.00;101421.00;;;;5014318;28;20570;-79
2023/07/17 04:12:10;;;;;;;3.50;1.60;;;;;22.00;101426.00;;;;5024365;28;20296;-79
2023/07/17 04:14:37;;;;;;;5.10;1.30;;;;;22.00;101426.00;;;;5025702;28;20655;-79
2023/07/17 04:17:07;;;;;;;2.72;1.45;;;;;21.90;101434.00;;;;5010706;28;20212;-79
2023/07/17 04:19:36;;;;;;;7.50;1.50;;;;;21.90;101435.00;;;;5024766;28;20224;-79
2023/07/17 04:22:03;;;;;;;6.43;1.60;;;;;21.90;101438.00;;;;5022209;28;20208;-79
2023/07/17 04:24:30;;;;;;;3.15;1.52;;;;;21.90;101441.00;;;;5021053;28;20197;-79
2023/07/17 04:26:59;;;;;;;5.82;2.15;;;;;21.90;101441.00;;;;5024033;28;20199;-79
2023/07/17 04:29:27;;;;;;;4.15;1.58;;;;;21.90;101442.00;;;;5021185;28;20201;-79
2023/07/17 04:31:55;;;;;;;2.72;1.42;;;;;21.90;101435.00;;;;5015510;28;20196;-79
2023/07/17 04:34:24;;;;;;;2.95;1.50;;;;;21.90;101451.00;;;;5020970;28;20208;-79
2023/07/17 04:36:51;;;;;;;5.85;1.50;;;;;22.00;101450.00;;;;5014741;28;20575;-79
2023/07/17 04:39:18;;;;;;;4.80;1.52;;;;;22.00;101447.00;;;;5007725;28;20233;-79
2023/07/17 04:41:45;;;;;;;3.58;1.90;;;;;21.90;101446.00;;;;5017043;28;20196;-79
2023/07/17 04:44:13;;;;;;;4.47;1.80;;;;;21.90;101447.00;;;;5022089;28;20216;-80
2023/07/17 04:46:40;;;;;;;4.68;1.73;;;;;21.90;101442.00;;;;5010987;28;20203;-79
2023/07/17 04:49:08;;;;;;;3.75;1.38;;;;;21.90;101456.00;;;;5000533;28;20221;-79
2023/07/17 04:51:36;;;;;;;5.97;1.50;;;;;21.90;101457.00;;;;5013153;28;20208;-79
2023/07/17 04:54:04;;;;;;;4.93;1.83;;;;;21.90;101459.00;;;;5021571;28;20201;-79
2023/07/17 04:56:31;;;;;;;3.60;1.63;;;;;21.90;101463.00;;;;5008978;28;20208;-79
2023/07/17 04:58:59;;;;;;;3.53;2.10;;;;;21.90;101465.00;;;;5015760;28;20248;-79
2023/07/17 05:01:26;;;;;;;4.97;1.75;;;;;22.00;101462.00;;;;5014695;28;20197;-79
2023/07/17 05:03:53;;;;;;;5.55;2.55;;;;;22.00;101460.00;;;;4994709;28;20201;-81
2023/07/17 05:06:21;;;;;;;3.42;1.90;;;;;21.90;101468.00;;;;5000090;28;20201;-81
2023/07/17 05:08:49;;;;;;;6.38;2.28;;;;;21.90;101461.00;;;;5010745;28;20197;-79
2023/07/17 05:11:17;;;;;;;5.32;2.13;;;;;22.00;101465.00;;;;5019892;28;20205;-79
2023/07/17 05:13:45;;;;;;;3.78;2.50;;;;;22.00;101469.00;;;;4995390;28;20288;-79
2023/07/17 05:16:13;;;;;;;5.68;2.25;;;;;22.00;101472.00;;;;4990698;28;20206;-79
2023/07/17 05:18:41;;;;;;;3.28;1.52;;;;;22.00;101475.00;;;;4994376;28;20208;-78
2023/07/17 05:21:08;;;;;;;5.93;2.33;;;;;22.00;101471.00;;;;4999823;28;20226;-78
2023/07/17 05:23:35;;;;;;;5.55;2.53;;;;;22.10;101474.00;;;;4999638;28;20201;-79
2023/07/17 05:26:04;;;;;;;5.03;2.47;;;;;22.10;101483.00;;;;4997517;28;20201;-79
2023/07/17 05:28:31;;;;;;;4.07;2.40;;;;;22.10;101484.00;;;;4982825;28;20234;-78
2023/07/17 05:30:59;;;;;;;6.57;2.22;;;;;22.20;101480.00;;;;4998155;28;20194;-78
2023/07/17 05:33:26;;;;;;;6.95;2.90;;;;;22.20;101492.00;;;;4995981;28;20216;-78
2023/07/17 05:35:54;;;;;;;6.07;2.13;;;;;22.20;101486.00;;;;4995189;28;20198;-79
2023/07/17 05:38:21;;;;;;;3.92;2.15;;;;;22.20;101492.00;;;;4984428;28;20209;-79
2023/07/17 05:40:48;;;;;;;5.18;2.08;;;;;22.20;101491.00;;;;4997423;28;20228;-79
2023/07/17 05:43:18;;;;;;;3.70;2.72;;;;;22.20;101501.00;;;;4998844;28;20201;-79
2023/07/17 05:45:45;;;;;;;6.35;2.58;;;;;22.30;101499.00;;;;4998442;28;20208;-78
2023/07/17 05:48:12;;;;;;;5.03;2.75;;;;;22.30;101496.00;;;;4992775;28;20198;-79
2023/07/17 05:50:41;;;;;;;4.57;2.47;;;;;22.40;101500.00;;;;4994792;28;20190;-79
2023/07/17 05:53:08;;;;;;;4.20;2.67;;;;;22.40;101512.00;;;;4986749;28;20201;-79
2023/07/17 05:55:35;;;;;;;5.47;2.45;;;;;22.50;101515.00;;;;4990601;28;20193;-79
2023/07/17 05:58:02;;;;;;;5.45;3.35;;;;;22.50;101515.00;;;;4998445;28;20198;-79
2023/07/17 06:00:34;;;;;;;8.38;3.65;;;;;22.50;101522.00;;;;5006162;28;20224;-79
2023/07/17 06:03:02;;;;;;;5.63;3.38;;;;;22.50;101518.00;;;;5016890;28;20220;-79
2023/07/17 06:05:29;;;;;;;7.55;3.38;;;;;22.60;101519.00;;;;5007548;28;20194;-78
2023/07/17 06:07:57;;;;;;;5.68;3.28;;;;;22.60;101524.00;;;;5002840;28;20201;-79
2023/07/17 06:10:24;;;;;;;8.45;3.53;;;;;22.60;101518.00;;;;5012395;28;20207;-79
2023/07/17 06:12:53;;;;;;;9.40;3.20;;;;;22.60;101523.00;;;;5012997;28;20205;-79
2023/07/17 06:15:20;;;;;;;6.47;4.72;;;;;22.60;101519.00;;;;5003914;28;20201;-79
2023/07/17 06:17:49;;;;;;;10.15;4.07;;;;;22.70;101527.00;;;;5017452;28;20202;-79
2023/07/17 06:20:17;;;;;;;8.43;4.38;;;;;22.70;101533.00;;;;5008959;28;20224;-79
2023/07/17 06:22:45;;;;;;;6.88;3.95;;;;;22.80;101534.00;;;;5011299;28;20204;-80
2023/07/17 06:25:13;;;;;;;11.60;4.90;;;;;22.80;101539.00;;;;5004184;28;20201;-79
2023/07/17 06:27:40;;;;;;;5.95;3.97;;;;;22.90;101540.00;;;;5004498;28;20222;-79
2023/07/17 06:30:08;;;;;;;8.48;4.25;;;;;22.90;101545.00;;;;5001210;28;20194;-79
2023/07/17 06:32:37;;;;;;;10.35;4.95;;;;;22.90;101547.00;;;;5003801;28;20206;-80
2023/07/17 06:35:08;;;;;;;9.07;3.83;;;;;23.00;101550.00;;;;5012350;28;20202;-79
2023/07/17 06:37:36;;;;;;;9.55;3.80;;;;;23.00;101549.00;;;;5004517;28;20197;-80
2023/07/17 06:40:04;;;;;;;8.13;4.35;;;;;23.10;101547.00;;;;5003319;28;20224;-81
2023/07/17 06:42:33;;;;;;;6.13;3.85;;;;;23.10;101558.00;;;;5013529;28;20233;-80
2023/07/17 06:45:01;;;;;;;11.80;3.92;;;;;23.20;101550.00;;;;5017109;28;20258;-80
2023/07/17 06:47:28;;;;;;;9.80;3.40;;;;;23.20;101556.00;;;;5001347;28;20200;-80
2023/07/17 06:49:55;;;;;;;6.07;3.33;;;;;23.20;101556.00;;;;5003041;28;20205;-81
2023/07/17 06:52:25;;;;;;;5.78;3.72;;;;;23.30;101558.00;;;;5011727;28;20211;-79
2023/07/17 06:54:52;;;;;;;8.18;3.97;;;;;23.30;101564.00;;;;5010327;28;20690;-80
2023/07/17 06:57:22;;;;;;;6.38;3.58;;;;;23.40;101559.00;;;;5004501;28;20197;-80
2023/07/17 06:59:49;;;;;;;11.30;4.40;;;;;23.40;101565.00;;;;5001743;28;20264;-80
2023/07/17 07:02:18;;;;;;;8.48;3.72;;;;;23.40;101562.00;;;;5004219;28;20672;-80
2023/07/17 07:04:45;;;;;;;7.10;3.20;;;;;23.50;101564.00;;;;5001958;28;20201;-80
2023/07/17 07:07:12;;;;;;;9.68;4.45;;;;;23.50;101562.00;;;;4996188;28;20193;-83
2023/07/17 07:09:41;;;;;;;6.13;3.47;;;;;23.50;101561.00;;;;4994287;28;20201;-81
2023/07/17 07:12:12;;;;;;;8.35;3.63;;;;;23.60;101565.00;;;;4992328;28;20208;-80
2023/07/17 07:14:39;;;;;;;9.45;3.67;;;;;23.60;101571.00;;;;4999387;28;20189;-81
2023/07/17 07:17:07;;;;;;;6.10;3.72;;;;;23.70;101563.00;;;;5000567;28;20207;-82
2023/07/17 07:19:35;;;;;;;8.75;3.08;;;;;23.70;101579.00;;;;5002929;28;20656;-80
2023/07/17 07:22:02;;;;;;;7.40;3.05;;;;;23.80;101578.00;;;;5000779;28;20201;-81
2023/07/17 07:24:30;;;;;;;7.15;3.47;;;;;23.80;101579.00;;;;5007156;28;20200;-82
2023/07/17 07:26:58;;;;;;;7.78;3.38;;;;;23.80;101579.00;;;;5000481;28;20454;-79
2023/07/17 07:29:26;;;;;;;6.35;3.50;;;;;23.90;101586.00;;;;5003342;28;20205;-81
2023/07/17 07:31:54;;;;;;;9.35;3.53;;;;;23.90;101592.00;;;;5006473;28;20197;-80
2023/07/17 07:34:21;;;;;;;6.40;2.85;;;;;24.00;101598.00;;;;4991854;28;20212;-82
2023/07/17 07:36:47;;;;;;;6.10;3.00;;;;;24.00;101593.00;;;;5003009;28;20202;-81
2023/07/17 07:39:21;;;;;;;5.63;3.20;;;;;24.00;101601.00;;;;5007053;28;20197;-80
2023/07/17 07:41:49;;;;;;;7.93;2.95;;;;;24.10;101593.00;;;;5002310;28;20229;-81
2023/07/17 07:44:18;;;;;;;5.43;2.95;;;;;24.20;101595.00;;;;5004634;28;20213;-80
2023/07/17 07:46:45;;;;;;;7.22;3.03;;;;;24.20;101612.00;;;;5008381;28;20789;-82
2023/07/17 07:49:12;;;;;;;6.28;2.95;;;;;24.20;101605.00;;;;5000636;28;20201;-80
2023/07/17 07:51:40;;;;;;;5.28;3.13;;;;;24.30;101603.00;;;;5002846;28;20599;-80
2023/07/17 07:54:07;;;;;;;4.93;2.80;;;;;24.30;101606.00;;;;5000316;28;20204;-81
2023/07/17 07:56:35;;;;;;;7.15;2.50;;;;;24.40;101604.00;;;;5005001;28;20204;-80
2023/07/17 07:59:02;;;;;;;5.68;3.15;;;;;24.50;101600.00;;;;5000281;28;20221;-81
2023/07/17 08:01:30;;;;;;;5.72;2.70;;;;;24.50;101604.00;;;;5004105;28;20224;-82
2023/07/17 08:03:58;;;;;;;4.50;2.75;;;;;24.60;101603.00;;;;4995583;28;21287;-79
2023/07/17 08:06:25;;;;;;;7.15;3.00;;;;;24.70;101609.00;;;;5001979;28;20213;-81
2023/07/17 08:08:52;;;;;;;7.43;2.15;;;;;24.70;101615.00;;;;5007077;28;20197;-80
2023/07/17 08:11:22;;;;;;;4.80;2.58;;;;;24.70;101627.00;;;;5006787;28;20201;-79
2023/07/17 08:13:49;;;;;;;4.85;2.97;;;;;24.70;101627.00;;;;5006455;28;20197;-82
2023/07/17 08:16:16;;;;;;;5.45;2.38;;;;;24.70;101636.00;;;;5009895;28;20228;-80
2023/07/17 08:18:46;;;;;;;4.47;2.65;;;;;24.70;101627.00;;;;5010116;28;20201;-80
2023/07/17 08:21:13;;;;;;;6.40;2.40;;;;;24.80;101626.00;;;;5008919;28;20596;-81
2023/07/17 08:23:40;;;;;;;8.90;2.58;;;;;24.90;101642.00;;;;5013021;28;20193;-80
2023/07/17 08:26:10;;;;;;;5.32;2.78;;;;;24.90;101636.00;;;;5012353;28;20201;-80
2023/07/17 08:28:37;;;;;;;4.15;2.28;;;;;25.00;101638.00;;;;5011788;28;20212;-81
2023/07/17 08:31:04;;;;;;;4.97;2.42;;;;;25.00;101632.00;;;;5008965;28;20196;-81
2023/07/17 08:33:32;;;;;;;5.43;2.63;;;;;25.10;101637.00;;;;5007867;28;20203;-80
2023/07/17 08:36:00;;;;;;;3.67;2.15;;;;;25.10;101627.00;;;;5006988;28;20280;-79
2023/07/17 08:38:28;;;;;;;2.65;1.95;;;;;25.20;101639.00;;;;4996043;28;20196;-84
2023/07/17 08:40:55;;;;;;;5.57;1.70;;;;;25.20;101624.00;;;;5008257;28;20228;-79
2023/07/17 08:43:25;;;;;;;3.08;1.92;;;;;25.30;101627.00;;;;5007396;28;20216;-79
2023/07/17 08:45:53;;;;;;;4.15;2.15;;;;;25.40;101623.00;;;;5009001;28;20201;-81
2023/07/17 08:48:21;;;;;;;4.10;2.10;;;;;25.50;101627.00;;;;5007510;28;20266;-81
2023/07/17 08:50:51;;;;;;;3.08;2.03;;;;;25.60;101631.00;;;;5006736;28;20211;-80
2023/07/17 08:53:22;;;;;;;2.65;1.90;;;;;25.70;101628.00;;;;5001158;28;20201;-82
2023/07/17 08:55:52;;;;;;;4.28;1.73;;;;;25.80;101632.00;;;;5002765;28;20193;-80
2023/07/17 08:58:20;;;;;;;4.55;2.08;;;;;25.80;101644.00;;;;5008264;28;20205;-78
2023/07/17 09:00:50;;;;;;;4.80;2.05;;;;;25.90;101644.00;;;;5004200;28;20257;-80
2023/07/17 09:03:19;;;;;;;8.43;2.22;;;;;26.00;101637.00;;;;5006005;28;20284;-79
2023/07/17 09:05:46;;;;;;;3.35;1.83;;;;;26.10;101638.00;;;;5008381;28;20197;-80
2023/07/17 09:08:13;;;;;;;3.53;1.88;;;;;26.10;101652.00;;;;5007834;28;20235;-80
2023/07/17 09:10:42;;;;;;;3.95;2.08;;;;;26.10;101649.00;;;;5005226;28;20208;-80
2023/07/17 09:13:10;;;;;;;2.95;1.65;;;;;26.10;101648.00;;;;5014607;28;20200;-81
2023/07/17 09:15:38;;;;;;;3.92;2.00;;;;;26.10;101648.00;;;;5007947;28;20201;-79
2023/07/17 09:18:05;;;;;;;5.97;2.20;;;;;26.00;101653.00;;;;5003031;28;20193;-80
2023/07/17 09:20:33;;;;;;;2.63;1.70;;;;;26.00;101654.00;;;;5006100;28;20205;-81
2023/07/17 09:23:03;;;;;;;2.95;1.95;;;;;25.90;101654.00;;;;5009661;28;20207;-80
2023/07/17 09:25:31;;;;;;;2.47;1.70;;;;;25.90;101656.00;;;;5007377;28;20229;-80
2023/07/17 09:28:00;;;;;;;3.65;1.73;;;;;25.80;101653.00;;;;5007184;28;20205;-79
2023/07/17 09:30:28;;;;;;;7.15;2.22;;;;;25.80;101670.00;;;;5005978;28;20205;-80
2023/07/17 09:33:06;;;;;;;3.95;1.55;;;;;25.60;101667.00;;;;5006269;28;20204;-80
2023/07/17 09:35:33;;;;;;;4.53;1.60;;;;;25.70;101671.00;;;;5004485;28;20203;-80
2023/07/17 09:38:00;;;;;;;4.22;1.95;;;;;25.50;101669.00;;;;5006857;28;20197;-80
2023/07/17 09:40:28;;;;;;;4.22;2.13;;;;;25.50;101669.00;;;;5004314;28;20196;-80
2023/07/17 09:42:57;;;;;;;3.63;1.67;;;;;25.40;101672.00;;;;5002112;28;20275;-79
2023/07/17 09:45:26;;;;;;;4.22;2.33;;;;;25.30;101675.00;;;;5007610;28;20197;-79
2023/07/17 09:47:54;;;;;;;3.17;2.17;;;;;25.30;101690.00;;;;5008436;28;20202;-79
2023/07/17 09:50:23;;;;;;;3.17;1.75;;;;;25.20;101695.00;;;;5007590;28;20205;-79
2023/07/17 09:52:51;;;;;;;4.50;1.95;;;;;25.10;101691.00;;;;5005191;28;20684;-80
2023/07/17 09:55:21;;;;;;;4.68;1.58;;;;;25.00;101695.00;;;;5006240;28;20197;-79
2023/07/17 09:57:50;;;;;;;3.22;2.15;;;;;25.00;101696.00;;;;5007930;28;20619;-79
2023/07/17 10:00:21;;;;;;;2.30;1.38;;;;;24.90;101707.00;;;;4995006;28;20240;-80
2023/07/17 10:02:57;;;;;;;2.60;1.55;;;;;24.70;101717.00;;;;5003975;28;20321;-79
2023/07/17 10:05:25;;;;;;;4.32;1.42;;;;;24.70;101720.00;;;;5006121;28;20216;-79
2023/07/17 10:07:53;;;;;;;2.75;1.20;;;;;24.60;101714.00;;;;5007029;28;20865;-79
2023/07/17 10:10:20;;;;;;;7.63;1.58;;;;;24.50;101726.00;;;;5003284;28;20209;-79
2023/07/17 10:12:49;;;;;;;2.75;1.40;;;;;24.40;101723.00;;;;5005240;28;20306;-79
2023/07/17 10:15:19;;;;;;;3.08;1.50;;;;;24.30;101712.00;;;;5003635;28;20197;-79
2023/07/17 10:17:57;;;;;;;4.75;1.23;;;;;24.20;101705.00;;;;5008541;28;20201;-79
2023/07/17 10:20:24;;;;;;;3.65;0.95;;;;;24.20;101707.00;;;;5008999;28;20193;-79
2023/07/17 10:22:52;;;;;;;2.30;1.00;;;;;24.20;101708.00;;;;5005697;28;20236;-80
2023/07/17 10:25:29;;;;;;;2.58;1.00;;;;;24.00;101706.00;;;;5001059;28;20209;-79
2023/07/17 10:28:02;;;;;;;1.98;0.85;;;;;24.00;101707.00;;;;5009073;28;20224;-79
2023/07/17 10:30:31;;;;;;;1.77;1.02;;;;;24.00;101709.00;;;;5009933;28;20205;-79
2023/07/17 10:33:13;;;;;;;3.17;1.00;;;;;23.90;101707.00;;;;5008182;28;20200;-79
2023/07/17 10:35:52;;;;;;;2.45;1.40;;;;;24.00;101712.00;;;;5008351;28;20654;-79
2023/07/17 10:38:23;;;;;;;2.58;1.05;;;;;24.10;101717.00;;;;5007932;28;20213;-80
2023/07/17 10:41:03;;;;;;;2.70;1.40;;;;;24.00;101719.00;;;;5003916;28;20207;-80
2023/07/17 10:43:30;;;;;;;2.63;1.20;;;;;24.00;101714.00;;;;5008582;28;20204;-78
2023/07/17 10:46:00;;;;;;;3.33;1.30;;;;;24.00;101710.00;;;;5010825;28;20204;-78
2023/07/17 10:48:34;;;;;;;2.90;1.30;;;;;23.90;101713.00;;;;5009922;28;20201;-78
2023/07/17 10:51:02;;;;;;;2.95;1.27;;;;;24.00;101701.00;;;;5005120;28;21904;-79
2023/07/17 10:53:29;;;;;;;2.97;1.10;;;;;24.00;101711.00;;;;5009278;28;20207;-79
2023/07/17 10:55:58;;;;;;;3.97;1.50;;;;;24.00;101706.00;;;;5013657;28;20200;-79
2023/07/17 10:58:25;;;;;;;4.22;1.77;;;;;24.00;101726.00;;;;5010511;28;20212;-79
2023/07/17 11:00:54;;;;;;;3.20;1.55;;;;;23.90;101726.00;;;;4988729;28;20237;-78
2023/07/17 11:03:22;;;;;;;4.78;1.83;;;;;23.90;101713.00;;;;4997128;28;20267;-78
2023/07/17 11:05:55;;;;;;;3.80;1.73;;;;;23.80;101719.00;;;;5006021;28;20288;-80
2023/07/17 11:08:25;;;;;;;3.25;1.70;;;;;23.80;101729.00;;;;5009969;28;20204;-81
2023/07/17 11:10:53;;;;;;;3.78;1.40;;;;;23.80;101725.00;;;;4988701;28;20209;-80
2023/07/17 11:13:21;;;;;;;5.55;2.20;;;;;23.80;101731.00;;;;5007817;28;20678;-80
2023/07/17 11:15:48;;;;;;;3.20;2.08;;;;;23.80;101735.00;;;;4989711;28;20202;-81
2023/07/17 11:18:15;;;;;;;4.28;1.95;;;;;23.80;101731.00;;;;4990049;28;20209;-82
2023/07/17 11:20:43;;;;;;;2.58;2.05;;;;;23.80;101728.00;;;;4998936;28;20207;-81
2023/07/17 11:23:14;;;;;;;3.08;2.22;;;;;23.70;101715.00;;;;5010590;28;20216;-81
2023/07/17 11:25:42;;;;;;;3.60;2.15;;;;;23.80;101719.00;;;;5006580;28;20199;-80
2023/07/17 11:28:10;;;;;;;3.95;2.47;;;;;23.80;101721.00;;;;4989400;28;20220;-80
2023/07/17 11:30:38;;;;;;;3.25;1.75;;;;;23.80;101712.00;;;;5000566;28;20284;-80
2023/07/17 11:33:07;;;;;;;4.95;1.70;;;;;23.90;101720.00;;;;4995287;28;20197;-80
2023/07/17 11:35:46;;;;;;;3.33;2.13;;;;;23.90;101720.00;;;;4996504;28;20666;-79
2023/07/17 11:38:18;;;;;;;6.70;2.05;;;;;24.00;101718.00;;;;4996362;28;20576;-76
2023/07/17 11:40:56;;;;;;;5.43;2.60;;;;;24.00;101711.00;;;;5003166;28;20778;-78
2023/07/17 11:43:28;;;;;;;2.70;1.70;;;;;24.10;101711.00;;;;4987013;28;20736;-79
2023/07/17 11:46:01;;;;;;;4.65;2.40;;;;;24.20;101717.00;;;;5006870;28;20211;-78
2023/07/17 11:48:31;;;;;;;4.63;2.05;;;;;24.20;101709.00;;;;4994830;28;20267;-79
2023/07/17 11:50:59;;;;;;;4.72;2.92;;;;;24.20;101709.00;;;;4995631;28;20655;-78
2023/07/17 11:53:29;;;;;;;4.38;2.33;;;;;24.20;101710.00;;;;5026204;28;20658;-78
2023/07/17 11:56:00;;;;;;;3.70;2.38;;;;;24.20;101722.00;;;;4992735;28;20201;-78
2023/07/17 11:58:34;;;;;;;12.77;3.20;;;;;24.20;101714.00;;;;4991358;28;20197;-77
2023/07/17 12:01:03;;;;;;;4.35;2.45;;;;;24.30;101721.00;;;;4993384;28;20794;-81
2023/07/17 12:03:30;;;;;;;4.57;2.95;;;;;24.30;101722.00;;;;4987285;28;20252;-78
2023/07/17 12:05:58;;;;;;;9.88;6.63;;;;;24.40;101722.00;;;;4997301;28;20205;-79
2023/07/17 12:08:28;;;;;;;5.65;4.13;;;;;24.40;101729.00;;;;4987550;28;20579;-79
2023/07/17 12:10:56;;;;;;;4.38;3.08;;;;;24.50;101725.00;;;;4994149;28;20682;-78
2023/07/17 12:13:23;;;;;;;9.15;3.15;;;;;24.60;101722.00;;;;5004937;28;20208;-79